sensor_id;sensor_type;location;lat;lon;timestamp;P1;durP1;ratioP1;P2;durP2;ratioP2
84616;SDS011;74846;51.126;16.944;2024-03-29T00:00:49;6.10;;;2.90;;
84616;SDS011;74846;51.126;16.944;2024-03-29T00:03:38;6.50;;;3.00;;
84616;SDS011;74846;51.126;16.944;2024-03-29T00:06:05;4.40;;;2.60;;
84616;SDS011;74846;51.126;16.944;2024-03-29T00:08:33;3.30;;;2.10;;
84616;SDS011;74846;51.126;16.944;2024-03-29T00:11:01;4.80;;;2.90;;
84616;SDS011;74846;51.126;16.944;2024-03-29T00:13:30;4.50;;;2.30;;
84616;SDS011;74846;51.126;16.944;2024-03-29T00:15:58;5.40;;;2.70;;
84616;SDS011;74846;51.126;16.944;2024-03-29T00:18:26;4.20;;;2.30;;
84616;SDS011;74846;51.126;16.944;2024-03-29T00:20:54;4.10;;;2.90;;
84616;SDS011;74846;51.126;16.944;2024-03-29T00:23:22;5.60;;;2.80;;
84616;SDS011;74846;51.126;16.944;2024-03-29T00:25:49;5.30;;;3.20;;
84616;SDS011;74846;51.126;16.944;2024-03-29T00:28:17;6.60;;;3.30;;
84616;SDS011;74846;51.126;16.944;2024-03-29T00:30:47;5.50;;;3.10;;
84616;SDS011;74846;51.126;16.944;2024-03-29T00:33:15;5.80;;;3.60;;
84616;SDS011;74846;51.126;16.944;2024-03-29T00:35:42;4.60;;;2.70;;
84616;SDS011;74846;51.126;16.944;2024-03-29T00:38:10;4.30;;;2.60;;
84616;SDS011;74846;51.126;16.944;2024-03-29T00:40:38;5.20;;;3.40;;
84616;SDS011;74846;51.126;16.944;2024-03-29T00:43:05;4.30;;;2.50;;
84616;SDS011;74846;51.126;16.944;2024-03-29T00:45:33;5.00;;;3.10;;
84616;SDS011;74846;51.126;16.944;2024-03-29T00:48:01;5.70;;;2.60;;
84616;SDS011;74846;51.126;16.944;2024-03-29T00:50:29;6.40;;;3.20;;
84616;SDS011;74846;51.126;16.944;2024-03-29T00:52:56;3.70;;;2.70;;
84616;SDS011;74846;51.126;16.944;2024-03-29T00:55:24;1.40;;;1.10;;
84616;SDS011;74846;51.126;16.944;2024-03-29T00:57:52;5.90;;;3.20;;
84616;SDS011;74846;51.126;16.944;2024-03-29T01:00:19;4.60;;;3.00;;
84616;SDS011;74846;51.126;16.944;2024-03-29T01:02:50;5.00;;;2.60;;
84616;SDS011;74846;51.126;16.944;2024-03-29T01:05:17;3.80;;;2.70;;
84616;SDS011;74846;51.126;16.944;2024-03-29T01:07:45;2.40;;;2.10;;
84616;SDS011;74846;51.126;16.944;2024-03-29T01:13:22;3.10;;;1.60;;
84616;SDS011;74846;51.126;16.944;2024-03-29T01:15:49;6.10;;;2.30;;
84616;SDS011;74846;51.126;16.944;2024-03-29T01:18:17;3.20;;;2.20;;
84616;SDS011;74846;51.126;16.944;2024-03-29T01:20:44;3.50;;;2.20;;
84616;SDS011;74846;51.126;16.944;2024-03-29T01:23:12;2.80;;;1.80;;
84616;SDS011;74846;51.126;16.944;2024-03-29T01:25:40;3.80;;;2.40;;
84616;SDS011;74846;51.126;16.944;2024-03-29T01:28:07;3.00;;;2.00;;
84616;SDS011;74846;51.126;16.944;2024-03-29T01:30:35;3.60;;;2.50;;
84616;SDS011;74846;51.126;16.944;2024-03-29T01:33:03;4.10;;;2.80;;
84616;SDS011;74846;51.126;16.944;2024-03-29T01:35:34;4.10;;;2.50;;
84616;SDS011;74846;51.126;16.944;2024-03-29T01:38:01;5.00;;;2.50;;
84616;SDS011;74846;51.126;16.944;2024-03-29T01:40:29;2.40;;;1.50;;
84616;SDS011;74846;51.126;16.944;2024-03-29T01:42:57;4.90;;;2.60;;
84616;SDS011;74846;51.126;16.944;2024-03-29T01:45:24;3.00;;;2.10;;
84616;SDS011;74846;51.126;16.944;2024-03-29T01:47:52;5.20;;;2.90;;
84616;SDS011;74846;51.126;16.944;2024-03-29T01:50:20;4.30;;;2.50;;
84616;SDS011;74846;51.126;16.944;2024-03-29T01:52:49;3.10;;;2.00;;
84616;SDS011;74846;51.126;16.944;2024-03-29T01:55:17;3.00;;;2.10;;
84616;SDS011;74846;51.126;16.944;2024-03-29T01:57:45;2.80;;;2.30;;
84616;SDS011;74846;51.126;16.944;2024-03-29T02:00:13;3.80;;;2.90;;
84616;SDS011;74846;51.126;16.944;2024-03-29T02:02:41;3.90;;;2.70;;
84616;SDS011;74846;51.126;16.944;2024-03-29T02:05:09;3.50;;;2.40;;
84616;SDS011;74846;51.126;16.944;2024-03-29T02:07:38;4.40;;;2.60;;
84616;SDS011;74846;51.126;16.944;2024-03-29T02:10:06;5.00;;;2.80;;
84616;SDS011;74846;51.126;16.944;2024-03-29T02:12:40;4.90;;;3.10;;
84616;SDS011;74846;51.126;16.944;2024-03-29T02:15:07;2.30;;;1.60;;
84616;SDS011;74846;51.126;16.944;2024-03-29T02:17:35;4.20;;;2.40;;
84616;SDS011;74846;51.126;16.944;2024-03-29T02:20:03;2.70;;;1.90;;
84616;SDS011;74846;51.126;16.944;2024-03-29T02:22:33;4.10;;;2.40;;
84616;SDS011;74846;51.126;16.944;2024-03-29T02:25:06;3.20;;;2.10;;
84616;SDS011;74846;51.126;16.944;2024-03-29T02:27:35;3.10;;;2.40;;
84616;SDS011;74846;51.126;16.944;2024-03-29T02:30:03;3.90;;;3.00;;
84616;SDS011;74846;51.126;16.944;2024-03-29T02:32:31;4.00;;;3.00;;
84616;SDS011;74846;51.126;16.944;2024-03-29T02:34:58;3.40;;;2.40;;
84616;SDS011;74846;51.126;16.944;2024-03-29T02:37:26;3.80;;;2.80;;
84616;SDS011;74846;51.126;16.944;2024-03-29T02:39:54;3.30;;;2.20;;
84616;SDS011;74846;51.126;16.944;2024-03-29T02:42:21;3.20;;;2.30;;
84616;SDS011;74846;51.126;16.944;2024-03-29T02:44:49;3.40;;;2.60;;
84616;SDS011;74846;51.126;16.944;2024-03-29T02:47:17;4.10;;;2.70;;
84616;SDS011;74846;51.126;16.944;2024-03-29T02:52:43;2.80;;;1.90;;
84616;SDS011;74846;51.126;16.944;2024-03-29T02:55:11;4.60;;;3.40;;
84616;SDS011;74846;51.126;16.944;2024-03-29T02:57:39;4.60;;;2.40;;
84616;SDS011;74846;51.126;16.944;2024-03-29T03:00:07;2.20;;;1.50;;
84616;SDS011;74846;51.126;16.944;2024-03-29T03:02:37;4.70;;;3.10;;
84616;SDS011;74846;51.126;16.944;2024-03-29T03:05:06;4.80;;;2.70;;
84616;SDS011;74846;51.126;16.944;2024-03-29T03:07:35;3.80;;;2.90;;
84616;SDS011;74846;51.126;16.944;2024-03-29T03:10:22;3.60;;;2.90;;
84616;SDS011;74846;51.126;16.944;2024-03-29T03:13:08;4.90;;;2.40;;
84616;SDS011;74846;51.126;16.944;2024-03-29T03:15:36;4.50;;;3.20;;
84616;SDS011;74846;51.126;16.944;2024-03-29T03:18:03;3.90;;;2.60;;
84616;SDS011;74846;51.126;16.944;2024-03-29T03:20:31;4.00;;;2.90;;
84616;SDS011;74846;51.126;16.944;2024-03-29T03:23:00;3.60;;;2.50;;
84616;SDS011;74846;51.126;16.944;2024-03-29T03:25:27;2.40;;;2.00;;
84616;SDS011;74846;51.126;16.944;2024-03-29T03:27:55;2.00;;;1.50;;
84616;SDS011;74846;51.126;16.944;2024-03-29T03:30:23;5.00;;;3.20;;
84616;SDS011;74846;51.126;16.944;2024-03-29T03:32:51;4.00;;;2.60;;
84616;SDS011;74846;51.126;16.944;2024-03-29T03:35:18;5.20;;;3.00;;
84616;SDS011;74846;51.126;16.944;2024-03-29T03:37:46;4.80;;;2.60;;
84616;SDS011;74846;51.126;16.944;2024-03-29T03:40:14;4.50;;;3.80;;
84616;SDS011;74846;51.126;16.944;2024-03-29T03:42:41;4.30;;;2.60;;
84616;SDS011;74846;51.126;16.944;2024-03-29T03:45:09;3.80;;;2.60;;
84616;SDS011;74846;51.126;16.944;2024-03-29T03:47:37;6.20;;;3.10;;
84616;SDS011;74846;51.126;16.944;2024-03-29T03:50:04;5.00;;;2.60;;
84616;SDS011;74846;51.126;16.944;2024-03-29T03:52:32;3.10;;;1.70;;
84616;SDS011;74846;51.126;16.944;2024-03-29T03:55:00;6.60;;;3.00;;
84616;SDS011;74846;51.126;16.944;2024-03-29T03:57:28;3.80;;;2.90;;
84616;SDS011;74846;51.126;16.944;2024-03-29T03:59:55;5.40;;;3.00;;
84616;SDS011;74846;51.126;16.944;2024-03-29T04:02:23;5.40;;;3.10;;
84616;SDS011;74846;51.126;16.944;2024-03-29T04:04:51;3.70;;;2.40;;
84616;SDS011;74846;51.126;16.944;2024-03-29T04:07:19;4.40;;;2.90;;
84616;SDS011;74846;51.126;16.944;2024-03-29T04:09:50;4.40;;;2.60;;
84616;SDS011;74846;51.126;16.944;2024-03-29T04:12:18;4.90;;;2.00;;
84616;SDS011;74846;51.126;16.944;2024-03-29T04:14:46;3.90;;;2.60;;
84616;SDS011;74846;51.126;16.944;2024-03-29T04:17:14;3.40;;;2.40;;
84616;SDS011;74846;51.126;16.944;2024-03-29T04:19:41;4.60;;;2.10;;
84616;SDS011;74846;51.126;16.944;2024-03-29T04:22:09;5.90;;;2.40;;
84616;SDS011;74846;51.126;16.944;2024-03-29T04:24:37;3.20;;;2.10;;
84616;SDS011;74846;51.126;16.944;2024-03-29T04:27:04;5.20;;;2.20;;
84616;SDS011;74846;51.126;16.944;2024-03-29T04:29:32;2.10;;;1.90;;
84616;SDS011;74846;51.126;16.944;2024-03-29T04:32:00;4.00;;;2.20;;
84616;SDS011;74846;51.126;16.944;2024-03-29T04:34:28;6.00;;;2.20;;
84616;SDS011;74846;51.126;16.944;2024-03-29T04:36:55;2.50;;;1.60;;
84616;SDS011;74846;51.126;16.944;2024-03-29T04:39:23;1.70;;;1.30;;
84616;SDS011;74846;51.126;16.944;2024-03-29T04:41:51;3.20;;;1.90;;
84616;SDS011;74846;51.126;16.944;2024-03-29T04:44:25;3.40;;;2.50;;
84616;SDS011;74846;51.126;16.944;2024-03-29T04:46:54;5.00;;;2.10;;
84616;SDS011;74846;51.126;16.944;2024-03-29T04:49:22;3.00;;;1.60;;
84616;SDS011;74846;51.126;16.944;2024-03-29T04:52:11;3.00;;;1.90;;
84616;SDS011;74846;51.126;16.944;2024-03-29T04:54:39;3.70;;;2.10;;
84616;SDS011;74846;51.126;16.944;2024-03-29T04:57:06;1.70;;;1.10;;
84616;SDS011;74846;51.126;16.944;2024-03-29T04:59:34;3.50;;;2.10;;
84616;SDS011;74846;51.126;16.944;2024-03-29T05:02:02;4.10;;;2.10;;
84616;SDS011;74846;51.126;16.944;2024-03-29T05:04:29;2.50;;;1.90;;
84616;SDS011;74846;51.126;16.944;2024-03-29T05:06:57;3.40;;;2.20;;
84616;SDS011;74846;51.126;16.944;2024-03-29T05:09:26;3.10;;;1.70;;
84616;SDS011;74846;51.126;16.944;2024-03-29T05:11:54;2.60;;;1.60;;
84616;SDS011;74846;51.126;16.944;2024-03-29T05:14:21;4.80;;;2.00;;
84616;SDS011;74846;51.126;16.944;2024-03-29T05:16:49;5.10;;;2.20;;
84616;SDS011;74846;51.126;16.944;2024-03-29T05:19:17;3.20;;;2.10;;
84616;SDS011;74846;51.126;16.944;2024-03-29T05:21:45;3.70;;;1.80;;
84616;SDS011;74846;51.126;16.944;2024-03-29T05:24:13;3.90;;;2.30;;
84616;SDS011;74846;51.126;16.944;2024-03-29T05:26:40;4.70;;;2.20;;
84616;SDS011;74846;51.126;16.944;2024-03-29T05:29:08;4.00;;;2.10;;
84616;SDS011;74846;51.126;16.944;2024-03-29T05:31:36;2.90;;;1.50;;
84616;SDS011;74846;51.126;16.944;2024-03-29T05:34:04;2.50;;;1.50;;
84616;SDS011;74846;51.126;16.944;2024-03-29T05:36:31;5.10;;;2.20;;
84616;SDS011;74846;51.126;16.944;2024-03-29T05:38:59;2.30;;;1.30;;
84616;SDS011;74846;51.126;16.944;2024-03-29T05:41:28;2.10;;;1.30;;
84616;SDS011;74846;51.126;16.944;2024-03-29T05:43:58;4.80;;;1.90;;
84616;SDS011;74846;51.126;16.944;2024-03-29T05:46:26;2.90;;;1.30;;
84616;SDS011;74846;51.126;16.944;2024-03-29T05:48:53;4.10;;;1.60;;
84616;SDS011;74846;51.126;16.944;2024-03-29T05:51:21;3.20;;;1.40;;
84616;SDS011;74846;51.126;16.944;2024-03-29T05:53:49;3.00;;;1.70;;
84616;SDS011;74846;51.126;16.944;2024-03-29T05:56:17;3.20;;;1.70;;
84616;SDS011;74846;51.126;16.944;2024-03-29T05:58:44;5.30;;;1.80;;
84616;SDS011;74846;51.126;16.944;2024-03-29T06:01:12;2.20;;;1.40;;
84616;SDS011;74846;51.126;16.944;2024-03-29T06:03:40;4.20;;;2.10;;
84616;SDS011;74846;51.126;16.944;2024-03-29T06:06:08;3.30;;;1.80;;
84616;SDS011;74846;51.126;16.944;2024-03-29T06:08:44;2.60;;;1.50;;
84616;SDS011;74846;51.126;16.944;2024-03-29T06:11:12;2.90;;;2.00;;
84616;SDS011;74846;51.126;16.944;2024-03-29T06:13:40;4.00;;;2.10;;
84616;SDS011;74846;51.126;16.944;2024-03-29T06:16:26;3.00;;;1.30;;
84616;SDS011;74846;51.126;16.944;2024-03-29T06:19:14;2.50;;;1.60;;
84616;SDS011;74846;51.126;16.944;2024-03-29T06:21:42;3.70;;;1.90;;
84616;SDS011;74846;51.126;16.944;2024-03-29T06:24:11;3.00;;;1.80;;
84616;SDS011;74846;51.126;16.944;2024-03-29T06:26:43;3.50;;;1.70;;
84616;SDS011;74846;51.126;16.944;2024-03-29T06:29:11;6.80;;;2.80;;
84616;SDS011;74846;51.126;16.944;2024-03-29T06:31:39;5.50;;;3.20;;
84616;SDS011;74846;51.126;16.944;2024-03-29T06:34:07;8.90;;;3.80;;
84616;SDS011;74846;51.126;16.944;2024-03-29T06:36:34;7.80;;;3.40;;
84616;SDS011;74846;51.126;16.944;2024-03-29T06:39:04;3.40;;;1.90;;
84616;SDS011;74846;51.126;16.944;2024-03-29T06:41:32;6.50;;;3.00;;
84616;SDS011;74846;51.126;16.944;2024-03-29T06:43:59;3.80;;;2.50;;
84616;SDS011;74846;51.126;16.944;2024-03-29T06:46:27;2.30;;;1.90;;
84616;SDS011;74846;51.126;16.944;2024-03-29T06:48:55;2.80;;;1.40;;
84616;SDS011;74846;51.126;16.944;2024-03-29T06:51:23;7.50;;;1.30;;
84616;SDS011;74846;51.126;16.944;2024-03-29T06:53:50;2.70;;;1.50;;
84616;SDS011;74846;51.126;16.944;2024-03-29T06:56:19;2.90;;;1.50;;
84616;SDS011;74846;51.126;16.944;2024-03-29T06:58:46;1.70;;;1.30;;
84616;SDS011;74846;51.126;16.944;2024-03-29T07:01:14;2.80;;;1.40;;
84616;SDS011;74846;51.126;16.944;2024-03-29T07:03:42;4.30;;;1.60;;
84616;SDS011;74846;51.126;16.944;2024-03-29T07:06:10;6.00;;;1.80;;
84616;SDS011;74846;51.126;16.944;2024-03-29T07:08:38;1.70;;;1.30;;
84616;SDS011;74846;51.126;16.944;2024-03-29T07:11:06;8.60;;;3.50;;
84616;SDS011;74846;51.126;16.944;2024-03-29T07:13:34;16.70;;;6.70;;
84616;SDS011;74846;51.126;16.944;2024-03-29T07:16:01;6.20;;;2.60;;
84616;SDS011;74846;51.126;16.944;2024-03-29T07:18:29;18.60;;;6.70;;
84616;SDS011;74846;51.126;16.944;2024-03-29T07:20:57;7.90;;;2.40;;
84616;SDS011;74846;51.126;16.944;2024-03-29T07:23:25;7.40;;;2.60;;
84616;SDS011;74846;51.126;16.944;2024-03-29T07:25:59;5.80;;;2.80;;
84616;SDS011;74846;51.126;16.944;2024-03-29T07:31:04;5.90;;;3.30;;
84616;SDS011;74846;51.126;16.944;2024-03-29T07:33:36;5.30;;;1.80;;
84616;SDS011;74846;51.126;16.944;2024-03-29T07:36:04;3.60;;;1.40;;
84616;SDS011;74846;51.126;16.944;2024-03-29T07:38:33;2.10;;;1.30;;
84616;SDS011;74846;51.126;16.944;2024-03-29T07:41:00;2.20;;;1.20;;
84616;SDS011;74846;51.126;16.944;2024-03-29T07:43:36;2.80;;;1.20;;
84616;SDS011;74846;51.126;16.944;2024-03-29T07:46:07;7.50;;;1.10;;
84616;SDS011;74846;51.126;16.944;2024-03-29T07:48:36;2.30;;;1.30;;
84616;SDS011;74846;51.126;16.944;2024-03-29T07:51:04;2.20;;;1.10;;
84616;SDS011;74846;51.126;16.944;2024-03-29T07:53:32;2.30;;;1.20;;
84616;SDS011;74846;51.126;16.944;2024-03-29T07:56:00;2.00;;;1.50;;
84616;SDS011;74846;51.126;16.944;2024-03-29T07:58:28;2.20;;;1.00;;
84616;SDS011;74846;51.126;16.944;2024-03-29T08:00:56;0.50;;;0.50;;
84616;SDS011;74846;51.126;16.944;2024-03-29T08:03:23;4.40;;;1.40;;
84616;SDS011;74846;51.126;16.944;2024-03-29T08:05:58;4.10;;;1.10;;
84616;SDS011;74846;51.126;16.944;2024-03-29T08:08:32;1.70;;;0.70;;
84616;SDS011;74846;51.126;16.944;2024-03-29T08:11:00;3.60;;;1.20;;
84616;SDS011;74846;51.126;16.944;2024-03-29T08:13:27;1.70;;;0.90;;
84616;SDS011;74846;51.126;16.944;2024-03-29T08:15:56;1.50;;;1.10;;
84616;SDS011;74846;51.126;16.944;2024-03-29T08:18:26;1.60;;;1.00;;
84616;SDS011;74846;51.126;16.944;2024-03-29T08:20:54;3.30;;;1.40;;
84616;SDS011;74846;51.126;16.944;2024-03-29T08:23:22;5.10;;;1.20;;
84616;SDS011;74846;51.126;16.944;2024-03-29T08:25:50;2.90;;;1.10;;
84616;SDS011;74846;51.126;16.944;2024-03-29T08:28:19;1.60;;;1.10;;
84616;SDS011;74846;51.126;16.944;2024-03-29T08:30:56;2.90;;;1.30;;
84616;SDS011;74846;51.126;16.944;2024-03-29T08:33:28;2.80;;;1.30;;
84616;SDS011;74846;51.126;16.944;2024-03-29T08:35:56;3.30;;;1.70;;
84616;SDS011;74846;51.126;16.944;2024-03-29T08:38:24;5.70;;;1.20;;
84616;SDS011;74846;51.126;16.944;2024-03-29T08:40:52;1.90;;;1.20;;
84616;SDS011;74846;51.126;16.944;2024-03-29T08:43:20;2.30;;;1.10;;
84616;SDS011;74846;51.126;16.944;2024-03-29T08:45:48;2.00;;;1.20;;
84616;SDS011;74846;51.126;16.944;2024-03-29T08:48:15;2.50;;;1.20;;
84616;SDS011;74846;51.126;16.944;2024-03-29T08:50:43;3.70;;;1.00;;
84616;SDS011;74846;51.126;16.944;2024-03-29T08:53:13;3.10;;;0.80;;
84616;SDS011;74846;51.126;16.944;2024-03-29T08:55:41;3.50;;;1.10;;
84616;SDS011;74846;51.126;16.944;2024-03-29T08:58:09;3.20;;;1.00;;
84616;SDS011;74846;51.126;16.944;2024-03-29T09:00:36;1.30;;;0.90;;
84616;SDS011;74846;51.126;16.944;2024-03-29T09:03:04;1.80;;;0.70;;
84616;SDS011;74846;51.126;16.944;2024-03-29T09:05:32;2.00;;;1.10;;
84616;SDS011;74846;51.126;16.944;2024-03-29T09:08:00;2.40;;;0.90;;
84616;SDS011;74846;51.126;16.944;2024-03-29T09:10:27;0.90;;;0.60;;
84616;SDS011;74846;51.126;16.944;2024-03-29T09:12:55;2.60;;;0.90;;
84616;SDS011;74846;51.126;16.944;2024-03-29T09:15:23;3.10;;;1.20;;
84616;SDS011;74846;51.126;16.944;2024-03-29T09:17:51;3.10;;;1.20;;
84616;SDS011;74846;51.126;16.944;2024-03-29T09:20:22;2.10;;;0.80;;
84616;SDS011;74846;51.126;16.944;2024-03-29T09:22:50;2.60;;;1.20;;
84616;SDS011;74846;51.126;16.944;2024-03-29T09:25:19;3.00;;;1.10;;
84616;SDS011;74846;51.126;16.944;2024-03-29T09:27:46;2.00;;;0.80;;
84616;SDS011;74846;51.126;16.944;2024-03-29T09:30:15;5.10;;;1.40;;
84616;SDS011;74846;51.126;16.944;2024-03-29T09:32:43;2.30;;;0.80;;
84616;SDS011;74846;51.126;16.944;2024-03-29T09:35:11;1.80;;;0.90;;
84616;SDS011;74846;51.126;16.944;2024-03-29T09:37:39;2.00;;;1.10;;
84616;SDS011;74846;51.126;16.944;2024-03-29T09:40:07;1.80;;;1.00;;
84616;SDS011;74846;51.126;16.944;2024-03-29T09:42:35;3.40;;;0.90;;
84616;SDS011;74846;51.126;16.944;2024-03-29T09:45:06;1.30;;;0.90;;
84616;SDS011;74846;51.126;16.944;2024-03-29T09:47:35;3.10;;;1.20;;
84616;SDS011;74846;51.126;16.944;2024-03-29T09:50:03;1.90;;;1.10;;
84616;SDS011;74846;51.126;16.944;2024-03-29T09:52:32;4.00;;;1.20;;
84616;SDS011;74846;51.126;16.944;2024-03-29T09:55:00;3.20;;;1.80;;
84616;SDS011;74846;51.126;16.944;2024-03-29T09:57:29;2.80;;;1.40;;
84616;SDS011;74846;51.126;16.944;2024-03-29T09:59:57;4.90;;;1.60;;
84616;SDS011;74846;51.126;16.944;2024-03-29T10:02:27;2.50;;;1.30;;
84616;SDS011;74846;51.126;16.944;2024-03-29T10:04:58;2.40;;;1.20;;
84616;SDS011;74846;51.126;16.944;2024-03-29T10:07:30;3.00;;;1.50;;
84616;SDS011;74846;51.126;16.944;2024-03-29T10:09:59;5.80;;;1.90;;
84616;SDS011;74846;51.126;16.944;2024-03-29T10:12:28;3.30;;;1.50;;
84616;SDS011;74846;51.126;16.944;2024-03-29T10:14:56;2.70;;;1.30;;
84616;SDS011;74846;51.126;16.944;2024-03-29T10:17:36;1.90;;;1.00;;
84616;SDS011;74846;51.126;16.944;2024-03-29T10:20:05;2.10;;;0.90;;
84616;SDS011;74846;51.126;16.944;2024-03-29T10:22:43;1.80;;;1.20;;
84616;SDS011;74846;51.126;16.944;2024-03-29T10:25:15;2.90;;;1.10;;
84616;SDS011;74846;51.126;16.944;2024-03-29T10:27:43;3.20;;;1.70;;
84616;SDS011;74846;51.126;16.944;2024-03-29T10:30:11;3.30;;;1.20;;
84616;SDS011;74846;51.126;16.944;2024-03-29T10:32:44;1.70;;;1.00;;
84616;SDS011;74846;51.126;16.944;2024-03-29T10:35:12;2.60;;;1.30;;
84616;SDS011;74846;51.126;16.944;2024-03-29T10:37:41;1.90;;;0.90;;
84616;SDS011;74846;51.126;16.944;2024-03-29T10:40:10;4.50;;;1.40;;
84616;SDS011;74846;51.126;16.944;2024-03-29T10:42:42;3.20;;;1.10;;
84616;SDS011;74846;51.126;16.944;2024-03-29T10:45:12;2.10;;;0.80;;
84616;SDS011;74846;51.126;16.944;2024-03-29T10:47:41;2.30;;;1.00;;
84616;SDS011;74846;51.126;16.944;2024-03-29T10:50:13;1.90;;;0.70;;
84616;SDS011;74846;51.126;16.944;2024-03-29T10:52:40;2.90;;;1.40;;
84616;SDS011;74846;51.126;16.944;2024-03-29T10:55:09;2.60;;;1.20;;
84616;SDS011;74846;51.126;16.944;2024-03-29T10:57:40;2.60;;;1.00;;
84616;SDS011;74846;51.126;16.944;2024-03-29T11:00:12;2.10;;;0.90;;
84616;SDS011;74846;51.126;16.944;2024-03-29T11:05:32;2.20;;;0.90;;
84616;SDS011;74846;51.126;16.944;2024-03-29T11:08:02;1.90;;;0.90;;
84616;SDS011;74846;51.126;16.944;2024-03-29T11:10:39;3.10;;;1.00;;
84616;SDS011;74846;51.126;16.944;2024-03-29T11:16:08;2.10;;;1.20;;
84616;SDS011;74846;51.126;16.944;2024-03-29T11:18:36;1.00;;;0.60;;
84616;SDS011;74846;51.126;16.944;2024-03-29T11:21:09;1.30;;;0.80;;
84616;SDS011;74846;51.126;16.944;2024-03-29T11:23:39;3.00;;;0.80;;
84616;SDS011;74846;51.126;16.944;2024-03-29T11:26:06;2.00;;;0.80;;
84616;SDS011;74846;51.126;16.944;2024-03-29T11:28:35;1.60;;;0.70;;
84616;SDS011;74846;51.126;16.944;2024-03-29T11:31:08;1.60;;;0.80;;
84616;SDS011;74846;51.126;16.944;2024-03-29T11:36:11;0.90;;;0.70;;
84616;SDS011;74846;51.126;16.944;2024-03-29T11:38:58;1.10;;;0.70;;
84616;SDS011;74846;51.126;16.944;2024-03-29T11:41:27;1.40;;;0.80;;
84616;SDS011;74846;51.126;16.944;2024-03-29T11:43:56;2.90;;;1.10;;
84616;SDS011;74846;51.126;16.944;2024-03-29T11:46:24;1.60;;;1.00;;
84616;SDS011;74846;51.126;16.944;2024-03-29T11:48:52;3.30;;;1.10;;
84616;SDS011;74846;51.126;16.944;2024-03-29T11:51:22;1.90;;;1.10;;
84616;SDS011;74846;51.126;16.944;2024-03-29T11:53:51;2.50;;;0.90;;
84616;SDS011;74846;51.126;16.944;2024-03-29T11:56:19;0.90;;;0.40;;
84616;SDS011;74846;51.126;16.944;2024-03-29T11:58:47;5.00;;;1.40;;
84616;SDS011;74846;51.126;16.944;2024-03-29T12:01:18;1.70;;;1.00;;
84616;SDS011;74846;51.126;16.944;2024-03-29T12:03:46;1.60;;;0.80;;
84616;SDS011;74846;51.126;16.944;2024-03-29T12:06:14;3.30;;;1.60;;
84616;SDS011;74846;51.126;16.944;2024-03-29T12:08:44;1.50;;;0.80;;
84616;SDS011;74846;51.126;16.944;2024-03-29T12:11:12;1.50;;;0.60;;
84616;SDS011;74846;51.126;16.944;2024-03-29T12:13:40;2.30;;;0.90;;
84616;SDS011;74846;51.126;16.944;2024-03-29T12:16:08;3.30;;;1.00;;
84616;SDS011;74846;51.126;16.944;2024-03-29T12:18:36;1.80;;;1.00;;
84616;SDS011;74846;51.126;16.944;2024-03-29T12:21:03;4.80;;;1.10;;
84616;SDS011;74846;51.126;16.944;2024-03-29T12:23:31;4.90;;;1.20;;
84616;SDS011;74846;51.126;16.944;2024-03-29T12:26:00;1.90;;;0.80;;
84616;SDS011;74846;51.126;16.944;2024-03-29T12:28:27;2.20;;;1.00;;
84616;SDS011;74846;51.126;16.944;2024-03-29T12:30:58;3.40;;;1.80;;
84616;SDS011;74846;51.126;16.944;2024-03-29T12:33:25;1.60;;;0.80;;
84616;SDS011;74846;51.126;16.944;2024-03-29T12:35:53;0.90;;;0.60;;
84616;SDS011;74846;51.126;16.944;2024-03-29T12:38:22;1.60;;;0.70;;
84616;SDS011;74846;51.126;16.944;2024-03-29T12:40:50;0.90;;;0.60;;
84616;SDS011;74846;51.126;16.944;2024-03-29T12:43:22;1.60;;;1.00;;
84616;SDS011;74846;51.126;16.944;2024-03-29T12:45:51;2.20;;;0.80;;
84616;SDS011;74846;51.126;16.944;2024-03-29T12:48:19;2.10;;;0.90;;
84616;SDS011;74846;51.126;16.944;2024-03-29T12:53:17;1.50;;;0.90;;
84616;SDS011;74846;51.126;16.944;2024-03-29T12:55:46;2.00;;;1.30;;
84616;SDS011;74846;51.126;16.944;2024-03-29T12:58:15;2.60;;;1.00;;
84616;SDS011;74846;51.126;16.944;2024-03-29T13:00:45;1.10;;;0.70;;
84616;SDS011;74846;51.126;16.944;2024-03-29T13:03:12;1.90;;;0.90;;
84616;SDS011;74846;51.126;16.944;2024-03-29T13:05:40;2.20;;;1.00;;
84616;SDS011;74846;51.126;16.944;2024-03-29T13:08:09;0.90;;;0.70;;
84616;SDS011;74846;51.126;16.944;2024-03-29T13:10:38;1.60;;;0.80;;
84616;SDS011;74846;51.126;16.944;2024-03-29T13:13:07;1.10;;;0.70;;
84616;SDS011;74846;51.126;16.944;2024-03-29T13:15:36;1.10;;;0.80;;
84616;SDS011;74846;51.126;16.944;2024-03-29T13:18:06;2.30;;;1.20;;
84616;SDS011;74846;51.126;16.944;2024-03-29T13:20:36;2.70;;;1.10;;
84616;SDS011;74846;51.126;16.944;2024-03-29T13:23:08;3.00;;;1.00;;
84616;SDS011;74846;51.126;16.944;2024-03-29T13:25:36;2.60;;;1.20;;
84616;SDS011;74846;51.126;16.944;2024-03-29T13:28:04;5.10;;;1.40;;
84616;SDS011;74846;51.126;16.944;2024-03-29T13:30:33;3.50;;;0.90;;
84616;SDS011;74846;51.126;16.944;2024-03-29T13:33:01;1.10;;;0.70;;
84616;SDS011;74846;51.126;16.944;2024-03-29T13:35:28;0.80;;;0.70;;
84616;SDS011;74846;51.126;16.944;2024-03-29T13:37:56;1.50;;;0.90;;
84616;SDS011;74846;51.126;16.944;2024-03-29T13:40:24;2.10;;;1.10;;
84616;SDS011;74846;51.126;16.944;2024-03-29T13:42:52;2.00;;;0.90;;
84616;SDS011;74846;51.126;16.944;2024-03-29T13:45:19;1.80;;;0.90;;
84616;SDS011;74846;51.126;16.944;2024-03-29T13:47:47;1.10;;;0.70;;
84616;SDS011;74846;51.126;16.944;2024-03-29T13:50:15;1.70;;;0.60;;
84616;SDS011;74846;51.126;16.944;2024-03-29T13:52:43;1.80;;;0.80;;
84616;SDS011;74846;51.126;16.944;2024-03-29T13:55:11;1.00;;;0.80;;
84616;SDS011;74846;51.126;16.944;2024-03-29T13:57:39;1.90;;;1.10;;
84616;SDS011;74846;51.126;16.944;2024-03-29T14:00:08;1.30;;;0.80;;
84616;SDS011;74846;51.126;16.944;2024-03-29T14:02:36;1.00;;;0.60;;
84616;SDS011;74846;51.126;16.944;2024-03-29T14:05:04;1.30;;;0.60;;
84616;SDS011;74846;51.126;16.944;2024-03-29T14:07:31;1.60;;;0.80;;
84616;SDS011;74846;51.126;16.944;2024-03-29T14:09:59;0.60;;;0.60;;
84616;SDS011;74846;51.126;16.944;2024-03-29T14:12:31;1.30;;;0.80;;
84616;SDS011;74846;51.126;16.944;2024-03-29T14:14:59;2.50;;;1.00;;
84616;SDS011;74846;51.126;16.944;2024-03-29T14:17:28;1.10;;;0.90;;
84616;SDS011;74846;51.126;16.944;2024-03-29T14:19:56;1.60;;;1.00;;
84616;SDS011;74846;51.126;16.944;2024-03-29T14:22:24;1.60;;;0.70;;
84616;SDS011;74846;51.126;16.944;2024-03-29T14:24:53;1.30;;;0.70;;
84616;SDS011;74846;51.126;16.944;2024-03-29T14:27:20;1.80;;;1.20;;
84616;SDS011;74846;51.126;16.944;2024-03-29T14:29:51;3.10;;;1.10;;
84616;SDS011;74846;51.126;16.944;2024-03-29T14:34:48;2.60;;;1.10;;
84616;SDS011;74846;51.126;16.944;2024-03-29T14:37:16;2.00;;;0.90;;
84616;SDS011;74846;51.126;16.944;2024-03-29T14:39:44;2.60;;;1.50;;
84616;SDS011;74846;51.126;16.944;2024-03-29T14:42:12;3.10;;;1.10;;
84616;SDS011;74846;51.126;16.944;2024-03-29T14:44:42;4.10;;;1.30;;
84616;SDS011;74846;51.126;16.944;2024-03-29T14:47:09;2.20;;;1.10;;
84616;SDS011;74846;51.126;16.944;2024-03-29T14:49:37;1.20;;;0.90;;
84616;SDS011;74846;51.126;16.944;2024-03-29T14:52:05;1.20;;;0.90;;
84616;SDS011;74846;51.126;16.944;2024-03-29T14:54:33;3.00;;;0.90;;
84616;SDS011;74846;51.126;16.944;2024-03-29T14:57:01;4.00;;;1.00;;
84616;SDS011;74846;51.126;16.944;2024-03-29T14:59:28;4.10;;;1.20;;
84616;SDS011;74846;51.126;16.944;2024-03-29T15:01:57;0.60;;;0.60;;
84616;SDS011;74846;51.126;16.944;2024-03-29T15:04:25;1.60;;;0.70;;